Flight Track Log - Related Links

Times and Time Zones

All times are in EST time to prevent confusion due to time zone crossing. See the OPT438 flight status page for this flight to view local times or setup timezone preferences in your user account.

Time Position Orientation Groundspeed Altitude Reporting Facility
EST Latitude Longitude Course Direction KTS MPH feet Rate Location/Type
Thu 08:23:54 AM 43.0589 -89.3872 205° Southwest 202 232 6,400  Level Chicago Center
Thu 08:24:56 AM 43.0031 -89.4267 207° Southwest 221 254 8,900 2,634 Climbing Chicago Center
Thu 08:25:57 AM 42.9397 -89.4667 205° Southwest 242 278 11,800 2,390 Climbing Chicago Center
Thu 08:26:59 AM 42.8700 -89.4989 199° South 258 297 13,800 2,195 Climbing Chicago Center
Thu 08:28:00 AM 42.6772 -89.6652 206° Southwest  Level FlightAware Approximate
Thu 08:28:00 AM 42.7833 -89.5561 206° Southwest 283 326 16,300  Level Chicago Center
Thu 08:29:02 AM 42.7097 -89.6078 207° Southwest 294 338 18,300 1,805 Climbing Chicago Center
Thu 08:30:03 AM 42.6283 -89.6658 208° Southwest 320 368 20,000 836 Climbing Chicago Center
Thu 08:31:04 AM 42.5392 -89.7289 208° Southwest 351 404 20,000 390 Level Chicago Center
Thu 08:32:06 AM 42.4483 -89.7947 208° Southwest 368 423 20,800 1,756 Climbing Chicago Center
Thu 08:33:07 AM 42.3617 -89.8550 207° Southwest 358 412 23,600 2,634 Climbing Chicago Center
Thu 08:34:09 AM 42.2789 -89.9142 208° Southwest 329 379 26,200 2,098 Climbing Chicago Center
Thu 08:35:10 AM 42.2000 -89.9731 209° Southwest 325 374 27,900 1,672 Climbing Chicago Center
Thu 08:36:11 AM 42.1181 -90.0311 208° Southwest 331 381 29,600 1,463 Climbing Chicago Center
Thu 08:37:13 AM 42.0356 -90.0872 207° Southwest 333 383 30,900 1,366 Climbing Chicago Center
Thu 08:38:14 AM 41.9333 -90.1586 207° Southwest 341 392 32,400 1,220 Climbing Chicago Center
Thu 08:39:16 AM 41.8483 -90.2178 207° Southwest 344 396 33,400 878 Climbing Chicago Center
Thu 08:40:17 AM 41.7700 -90.2733 208° Southwest 352 405 34,200 780 Climbing Chicago Center
Thu 08:41:19 AM 41.6819 -90.3347 208° Southwest 358 412 35,000 732 Climbing Chicago Center
Thu 08:42:20 AM 41.5722 -90.4111 208° Southwest 370 426 35,700 639 Climbing Chicago Center
Thu 08:43:21 AM 41.4778 -90.4719 206° Southwest 376 433 36,300 585 Climbing Chicago Center
Thu 08:44:23 AM 41.3831 -90.5372 207° Southwest 382 440 36,900 634 Climbing Chicago Center
Thu 08:45:24 AM 41.2894 -90.6014 207° Southwest 381 438 37,600 541 Climbing Chicago Center
Thu 08:46:25 AM 41.1947 -90.6678 208° Southwest 385 443 38,000 195 Climbing Chicago Center
Thu 08:47:27 AM 41.0992 -90.7325 207° Southwest 386 444 38,000  Level Chicago Center
Thu 08:48:28 AM 41.0008 -90.8008 208° Southwest 398 458 38,000  Level Chicago Center
Thu 08:49:29 AM 40.8983 -90.8692 207° Southwest 412 474 38,000  Level Chicago Center
Thu 08:50:31 AM 40.7744 -90.9525 207° Southwest 418 481 38,000  Level Chicago Center
Thu 08:51:32 AM 40.6681 -91.0231 207° Southwest 426 490 38,000  Level Chicago Center
Thu 08:52:33 AM 40.5614 -91.0939 207° Southwest 430 495 38,000  Level Chicago Center
Thu 08:53:35 AM 40.4550 -91.1656 207° Southwest 430 495 38,000  Level Chicago Center
Thu 08:54:36 AM 40.3467 -91.2361 206° Southwest 434 499 38,000  Level Chicago Center
Thu 08:55:42 AM 40.2239 -91.3175 207° Southwest 436 502 38,000  Level Kansas City Center
Thu 08:56:44 AM 40.1161 -91.3897 207° Southwest 436 502 38,000  Level Kansas City Center
Thu 08:57:45 AM 40.0069 -91.4603 206° Southwest 437 503 38,000  Level Kansas City Center
Thu 08:58:46 AM 39.8967 -91.5328 207° Southwest 441 507 38,000  Level Kansas City Center
Thu 08:59:47 AM 39.7878 -91.6025 206° Southwest 439 505 38,000  Level Kansas City Center
Thu 09:00:49 AM 39.6781 -91.6742 207° Southwest 439 505 38,000  Level Kansas City Center
Thu 09:01:50 AM 39.5458 -91.7589 206° Southwest 442 509 38,000  Level Kansas City Center
Thu 09:02:51 AM 39.4356 -91.8292 206° Southwest 441 507 38,000  Level Kansas City Center
Thu 09:03:52 AM 39.3250 -91.8997 206° Southwest 442 509 38,000  Level Kansas City Center
Thu 09:04:54 AM 39.2150 -91.9700 206° Southwest 442 509 38,000  Level Kansas City Center
Thu 09:05:55 AM 39.1044 -92.0419 207° Southwest 442 509 38,000  Level Kansas City Center
Thu 09:06:56 AM 38.9933 -92.1125 206° Southwest 443 510 38,000  Level Kansas City Center
Thu 09:07:58 AM 38.8814 -92.1825 206° Southwest 445 512 38,000  Level Kansas City Center
Thu 09:08:59 AM 38.7700 -92.2533 206° Southwest 446 513 38,000  Level Kansas City Center
Thu 09:10:00 AM 38.6583 -92.3236 206° Southwest 446 513 38,000  Level Kansas City Center
Thu 09:11:02 AM 38.5233 -92.4072 206° Southwest 449 517 38,000  Level Kansas City Center
Thu 09:12:03 AM 38.4111 -92.4761 206° Southwest 448 516 38,000  Level Kansas City Center
Thu 09:13:04 AM 38.2986 -92.5472 206° Southwest 450 518 38,000  Level Kansas City Center
Thu 09:14:06 AM 38.1928 -92.6119 206° Southwest 450 518 38,000  Level Kansas City Center
Thu 09:15:07 AM 38.0808 -92.6811 206° Southwest 449 517 38,000  Level Kansas City Center
Thu 09:16:08 AM 37.9656 -92.7517 206° Southwest 447 514 38,000  Level Kansas City Center
Thu 09:17:10 AM 37.8550 -92.8181 205° Southwest 444 511 38,000  Level Kansas City Center
Thu 09:18:11 AM 37.7442 -92.8858 206° Southwest 443 510 38,000  Level Kansas City Center
Thu 09:19:13 AM 37.6114 -92.9656 205° Southwest 441 507 38,000  Level Kansas City Center
Thu 09:20:14 AM 37.5011 -93.0297 205° Southwest 437 503 38,000  Level Kansas City Center
Thu 09:21:15 AM 37.3922 -93.0969 206° Southwest 435 501 38,000  Level Kansas City Center
Thu 09:22:17 AM 37.2831 -93.1603 205° Southwest 432 497 38,000  Level Kansas City Center
Thu 09:23:18 AM 37.1753 -93.2258 206° Southwest 429 494 38,000  Level Kansas City Center
Thu 09:24:20 AM 37.0669 -93.2922 206° Southwest 431 496 38,000  Level Kansas City Center
Thu 09:25:21 AM 36.9586 -93.3569 206° Southwest 430 495 38,000  Level Kansas City Center
Thu 09:26:23 AM 36.8453 -93.4222 205° Southwest 431 496 38,000  Level Kansas City Center
Thu 09:27:24 AM 36.7386 -93.4872 206° Southwest 429 494 38,000  Level Kansas City Center
Thu 09:28:26 AM 36.6325 -93.5506 206° Southwest 425 489 38,000  Level Kansas City Center
Thu 09:29:27 AM 36.5258 -93.6139 206° Southwest 425 489 38,000  Level Kansas City Center
Thu 09:30:29 AM 36.4197 -93.6761 205° Southwest 424 488 38,000  Level Kansas City Center
Thu 09:31:30 AM 36.2919 -93.7506 205° Southwest 425 489 38,000  Level Kansas City Center
Thu 09:32:47 AM 36.1636 -93.8253 205° Southwest 422 486 38,000  Level Memphis Center
Thu 09:33:49 AM 36.0572 -93.8878 205° Southwest 423 487 38,000  Level Memphis Center
Thu 09:34:50 AM 35.9508 -93.9483 205° Southwest 423 487 38,000  Level Memphis Center
Thu 09:35:52 AM 35.8456 -94.0094 205° Southwest 423 487 38,000  Level Memphis Center
Thu 09:36:53 AM 35.7153 -94.0839 205° Southwest 424 488 38,000  Level Memphis Center
Thu 09:37:54 AM 35.6094 -94.1444 205° Southwest 426 490 38,000  Level Memphis Center
Thu 09:38:56 AM 35.5028 -94.2053 205° Southwest 425 489 38,000  Level Memphis Center
Thu 09:39:57 AM 35.3950 -94.2678 205° Southwest 427 491 38,000  Level Memphis Center
Thu 09:40:59 AM 35.3122 -94.3567 221° Southwest 398 458 38,000  Level Memphis Center
Thu 09:42:00 AM 35.2289 -94.4461 221° Southwest 399 459 38,000  Level Memphis Center
Thu 09:43:02 AM 35.1450 -94.5350 221° Southwest 401 461 38,000  Level Memphis Center
Thu 09:44:07 AM 35.0558 -94.6328 222° Southwest 402 463 38,000  Level Fort Worth Center
Thu 09:45:09 AM 34.9542 -94.7431 222° Southwest 405 466 38,000  Level Fort Worth Center
Thu 09:46:11 AM 34.8689 -94.8356 222° Southwest 406 467 38,000  Level Fort Worth Center
Thu 09:47:13 AM 34.7922 -94.9136 220° Southwest 401 461 38,000  Level Fort Worth Center
Thu 09:48:15 AM 34.7006 -94.9994 218° Southwest 411 473 38,000  Level Fort Worth Center
Thu 09:49:17 AM 34.5903 -95.1053 218° Southwest 419 482 38,000 -290 Level Fort Worth Center
Thu 09:50:19 AM 34.4989 -95.1908 218° Southwest 416 479 37,400 -1,016 Descending Fort Worth Center
Thu 09:51:21 AM 34.4092 -95.2764 218° Southwest 413 475 35,900 -1,500 Descending Fort Worth Center
Thu 09:52:23 AM 34.3200 -95.3586 217° Southwest 406 467 34,300 -1,984 Descending Fort Worth Center
Thu 09:53:25 AM 34.2322 -95.4408 218° Southwest 401 461 31,800 -2,613 Descending Fort Worth Center
Thu 09:54:27 AM 34.1267 -95.5394 218° Southwest 402 463 28,900 -2,516 Descending Fort Worth Center
Thu 09:55:29 AM 34.0367 -95.6236 218° Southwest 408 470 26,600 -2,208 Descending Fort Worth Center
Thu 09:56:32 AM 33.9406 -95.7131 218° Southwest 433 498 24,300 -2,112 Descending Fort Worth Center
Thu 09:57:34 AM 33.8453 -95.8014 218° Southwest 435 501 22,200 -2,032 Descending Fort Worth Center
Thu 09:58:36 AM 33.7511 -95.8894 218° Southwest 429 494 20,100 -2,226 Descending Fort Worth Center
Thu 09:59:38 AM 33.6400 -95.9900 217° Southwest 416 479 17,600 -2,226 Descending Fort Worth Center
Thu 10:00:40 AM 33.5500 -96.0717 217° Southwest 408 470 15,500 -1,984 Descending Fort Worth Center
Thu 10:01:42 AM 33.4606 -96.1519 217° Southwest 376 433 13,500 -1,887 Descending Fort Worth Center
Thu 10:02:44 AM 33.3775 -96.2289 218° Southwest 377 434 11,600 -1,742 Descending Fort Worth Center
Thu 10:03:46 AM 33.2953 -96.3047 218° Southwest 343 395 9,900 -1,790 Descending Fort Worth Center
Thu 10:04:48 AM 33.2536 -96.3836 238° Southwest 282 325 7,900 -1,790 Descending Fort Worth Center
Thu 10:05:50 AM 33.2125 -96.4608 238° Southwest 261 300 6,200 -1,526 Descending Fort Worth Center
Thu 10:06:42 AM 33.1833 -96.5167 238° Southwest 265 305 5,000 -911 Descending Dallas / Fort Worth TRACON
Thu 10:07:42 AM 33.1500 -96.6000 244° Southwest 251 289 4,500 -476 Descending Dallas / Fort Worth TRACON
Thu 10:08:48 AM 33.1167 -96.6833 244° Southwest 263 303 4,000 -286 Descending Dallas / Fort Worth TRACON
Thu 10:09:48 AM 33.0833 -96.7667 244° Southwest 261 300 3,900 -400 Descending Dallas / Fort Worth TRACON
Thu 10:10:48 AM 33.0500 -96.8333 239° Southwest 212 244 3,200 -900 Descending Dallas / Fort Worth TRACON
Thu 10:11:48 AM 33.0333 -96.8500 220° Southwest 99 114 2,100 -1,050 Descending Dallas / Fort Worth TRACON
Thu 10:12:48 AM 33.0000 -96.8500 180° South 109 125 1,100 -1,000 Descending Dallas / Fort Worth TRACON
Thu 10:16:00 AM 32.9667 -96.8333 239° Southwest  Level FlightAware Approximate

Login

Don't have an account? Register now (free) for customized features, flight alerts, and more!